sensor_id;sensor_type;location;lat;lon;timestamp;temperature;humidity
52799;DHT22;38667;42.872;74.622;2022-12-18T00:00:39;0.00;75.40
52799;DHT22;38667;42.872;74.622;2022-12-18T00:03:07;0.00;74.90
52799;DHT22;38667;42.872;74.622;2022-12-18T00:05:34;0.00;74.60
52799;DHT22;38667;42.872;74.622;2022-12-18T00:08:00;0.10;74.60
52799;DHT22;38667;42.872;74.622;2022-12-18T00:10:27;0.10;74.30
52799;DHT22;38667;42.872;74.622;2022-12-18T00:12:54;0.00;74.40
52799;DHT22;38667;42.872;74.622;2022-12-18T00:15:20;-0.10;75.10
52799;DHT22;38667;42.872;74.622;2022-12-18T00:17:46;-0.10;75.60
52799;DHT22;38667;42.872;74.622;2022-12-18T00:20:16;0.00;74.50
52799;DHT22;38667;42.872;74.622;2022-12-18T00:22:42;0.10;74.30
52799;DHT22;38667;42.872;74.622;2022-12-18T00:25:09;0.10;73.90
52799;DHT22;38667;42.872;74.622;2022-12-18T00:27:35;0.20;73.00
52799;DHT22;38667;42.872;74.622;2022-12-18T00:30:02;0.20;72.50
52799;DHT22;38667;42.872;74.622;2022-12-18T00:32:28;0.20;71.90
52799;DHT22;38667;42.872;74.622;2022-12-18T00:34:54;0.20;72.20
52799;DHT22;38667;42.872;74.622;2022-12-18T00:37:22;0.00;72.90
52799;DHT22;38667;42.872;74.622;2022-12-18T00:39:48;-0.20;73.10
52799;DHT22;38667;42.872;74.622;2022-12-18T00:42:15;-0.50;74.20
52799;DHT22;38667;42.872;74.622;2022-12-18T00:44:41;-0.50;74.60
52799;DHT22;38667;42.872;74.622;2022-12-18T00:47:07;-0.50;74.80
52799;DHT22;38667;42.872;74.622;2022-12-18T00:49:34;-0.40;74.70
52799;DHT22;38667;42.872;74.622;2022-12-18T00:52:00;-0.50;74.70
52799;DHT22;38667;42.872;74.622;2022-12-18T00:54:28;-0.60;74.90
52799;DHT22;38667;42.872;74.622;2022-12-18T00:56:54;-0.60;76.10
52799;DHT22;38667;42.872;74.622;2022-12-18T00:59:21;-0.70;77.40
52799;DHT22;38667;42.872;74.622;2022-12-18T01:01:47;-0.80;78.20
52799;DHT22;38667;42.872;74.622;2022-12-18T01:04:14;-0.90;78.60
52799;DHT22;38667;42.872;74.622;2022-12-18T01:06:40;-1.00;78.90
52799;DHT22;38667;42.872;74.622;2022-12-18T01:09:07;-1.10;79.50
52799;DHT22;38667;42.872;74.622;2022-12-18T01:11:34;-1.20;80.00
52799;DHT22;38667;42.872;74.622;2022-12-18T01:14:01;-1.20;80.10
52799;DHT22;38667;42.872;74.622;2022-12-18T01:16:27;-1.30;81.30
52799;DHT22;38667;42.872;74.622;2022-12-18T01:18:54;-1.40;81.50
52799;DHT22;38667;42.872;74.622;2022-12-18T01:21:21;-1.30;82.30
52799;DHT22;38667;42.872;74.622;2022-12-18T01:23:51;-1.40;82.20
52799;DHT22;38667;42.872;74.622;2022-12-18T01:26:17;-1.40;82.60
52799;DHT22;38667;42.872;74.622;2022-12-18T01:28:45;-1.40;82.60
52799;DHT22;38667;42.872;74.622;2022-12-18T01:31:17;-1.40;82.30
52799;DHT22;38667;42.872;74.622;2022-12-18T01:33:44;-1.50;82.50
52799;DHT22;38667;42.872;74.622;2022-12-18T01:36:16;-1.50;82.80
52799;DHT22;38667;42.872;74.622;2022-12-18T01:38:42;-1.50;82.60
52799;DHT22;38667;42.872;74.622;2022-12-18T01:41:09;-1.50;82.50
52799;DHT22;38667;42.872;74.622;2022-12-18T01:43:49;-1.50;82.70
52799;DHT22;38667;42.872;74.622;2022-12-18T01:46:17;-1.50;83.50
52799;DHT22;38667;42.872;74.622;2022-12-18T01:48:45;-1.50;82.80
52799;DHT22;38667;42.872;74.622;2022-12-18T01:51:13;-1.40;82.70
52799;DHT22;38667;42.872;74.622;2022-12-18T01:53:41;-1.40;82.30
52799;DHT22;38667;42.872;74.622;2022-12-18T01:56:13;-1.40;81.90
52799;DHT22;38667;42.872;74.622;2022-12-18T01:58:50;-1.40;81.70
52799;DHT22;38667;42.872;74.622;2022-12-18T02:01:17;-1.40;81.30
52799;DHT22;38667;42.872;74.622;2022-12-18T02:03:44;-1.40;80.80
52799;DHT22;38667;42.872;74.622;2022-12-18T02:06:15;-1.50;81.00
52799;DHT22;38667;42.872;74.622;2022-12-18T02:08:48;-1.50;81.20
52799;DHT22;38667;42.872;74.622;2022-12-18T02:11:20;-1.40;81.30
52799;DHT22;38667;42.872;74.622;2022-12-18T02:13:56;-1.40;81.00
52799;DHT22;38667;42.872;74.622;2022-12-18T02:16:27;-1.40;80.70
52799;DHT22;38667;42.872;74.622;2022-12-18T02:18:57;-1.40;80.60
52799;DHT22;38667;42.872;74.622;2022-12-18T02:21:31;-1.40;80.70
52799;DHT22;38667;42.872;74.622;2022-12-18T02:24:11;-1.40;80.50
52799;DHT22;38667;42.872;74.622;2022-12-18T02:26:44;-1.40;80.70
52799;DHT22;38667;42.872;74.622;2022-12-18T02:29:16;-1.50;81.00
52799;DHT22;38667;42.872;74.622;2022-12-18T02:31:45;-1.50;80.70
52799;DHT22;38667;42.872;74.622;2022-12-18T02:34:14;-1.50;80.80
52799;DHT22;38667;42.872;74.622;2022-12-18T02:36:41;-1.50;80.50
52799;DHT22;38667;42.872;74.622;2022-12-18T02:39:11;-1.70;80.80
52799;DHT22;38667;42.872;74.622;2022-12-18T02:41:39;-1.70;81.20
52799;DHT22;38667;42.872;74.622;2022-12-18T02:44:10;-1.70;81.20
52799;DHT22;38667;42.872;74.622;2022-12-18T02:46:39;-1.70;81.40
52799;DHT22;38667;42.872;74.622;2022-12-18T02:49:14;-1.70;81.40
52799;DHT22;38667;42.872;74.622;2022-12-18T02:51:50;-1.60;81.10
52799;DHT22;38667;42.872;74.622;2022-12-18T02:54:24;-1.60;81.10
52799;DHT22;38667;42.872;74.622;2022-12-18T02:56:54;-1.50;81.30
52799;DHT22;38667;42.872;74.622;2022-12-18T02:59:30;-1.50;80.90
52799;DHT22;38667;42.872;74.622;2022-12-18T03:02:02;-1.50;80.50
52799;DHT22;38667;42.872;74.622;2022-12-18T03:04:34;-1.60;80.20
52799;DHT22;38667;42.872;74.622;2022-12-18T03:07:05;-1.50;80.90
52799;DHT22;38667;42.872;74.622;2022-12-18T03:09:36;-1.50;80.90
52799;DHT22;38667;42.872;74.622;2022-12-18T03:12:06;-1.50;80.30
52799;DHT22;38667;42.872;74.622;2022-12-18T03:14:37;-1.50;80.20
52799;DHT22;38667;42.872;74.622;2022-12-18T03:17:07;-1.50;80.40
52799;DHT22;38667;42.872;74.622;2022-12-18T03:19:36;-1.40;80.70
52799;DHT22;38667;42.872;74.622;2022-12-18T03:22:03;-1.30;79.90
52799;DHT22;38667;42.872;74.622;2022-12-18T03:24:31;-1.20;79.50
52799;DHT22;38667;42.872;74.622;2022-12-18T03:27:01;-1.00;78.90
52799;DHT22;38667;42.872;74.622;2022-12-18T03:29:33;-0.90;79.00
52799;DHT22;38667;42.872;74.622;2022-12-18T03:32:05;-0.90;78.50
52799;DHT22;38667;42.872;74.622;2022-12-18T03:34:35;-0.80;77.70
52799;DHT22;38667;42.872;74.622;2022-12-18T03:37:02;-0.70;77.30
52799;DHT22;38667;42.872;74.622;2022-12-18T03:39:29;-0.70;77.30
52799;DHT22;38667;42.872;74.622;2022-12-18T03:42:00;-0.70;77.70
52799;DHT22;38667;42.872;74.622;2022-12-18T03:44:31;-0.70;78.00
52799;DHT22;38667;42.872;74.622;2022-12-18T03:47:06;-0.60;78.80
52799;DHT22;38667;42.872;74.622;2022-12-18T03:49:38;-0.60;78.20
52799;DHT22;38667;42.872;74.622;2022-12-18T03:52:07;-0.60;78.40
52799;DHT22;38667;42.872;74.622;2022-12-18T03:54:35;-0.50;78.60
52799;DHT22;38667;42.872;74.622;2022-12-18T03:57:06;-0.40;78.40
52799;DHT22;38667;42.872;74.622;2022-12-18T03:59:34;-0.40;79.30
52799;DHT22;38667;42.872;74.622;2022-12-18T04:02:04;-0.30;79.50
52799;DHT22;38667;42.872;74.622;2022-12-18T04:04:32;-0.20;79.10
52799;DHT22;38667;42.872;74.622;2022-12-18T04:06:59;-0.20;78.70
52799;DHT22;38667;42.872;74.622;2022-12-18T04:09:26;-0.10;78.80
52799;DHT22;38667;42.872;74.622;2022-12-18T04:11:53;-0.10;78.20
52799;DHT22;38667;42.872;74.622;2022-12-18T04:14:19;0.00;78.60
52799;DHT22;38667;42.872;74.622;2022-12-18T04:16:46;0.10;79.00
52799;DHT22;38667;42.872;74.622;2022-12-18T04:19:14;0.20;79.00
52799;DHT22;38667;42.872;74.622;2022-12-18T04:21:40;0.20;79.10
52799;DHT22;38667;42.872;74.622;2022-12-18T04:24:07;0.30;79.30
52799;DHT22;38667;42.872;74.622;2022-12-18T04:26:33;0.40;78.90
52799;DHT22;38667;42.872;74.622;2022-12-18T04:28:59;0.50;78.70
52799;DHT22;38667;42.872;74.622;2022-12-18T04:31:26;0.60;78.60
52799;DHT22;38667;42.872;74.622;2022-12-18T04:33:52;0.80;78.40
52799;DHT22;38667;42.872;74.622;2022-12-18T04:36:20;0.80;78.30
52799;DHT22;38667;42.872;74.622;2022-12-18T04:38:46;0.90;77.90
52799;DHT22;38667;42.872;74.622;2022-12-18T04:41:12;0.90;77.80
52799;DHT22;38667;42.872;74.622;2022-12-18T04:43:39;1.00;78.00
52799;DHT22;38667;42.872;74.622;2022-12-18T04:46:06;1.10;78.10
52799;DHT22;38667;42.872;74.622;2022-12-18T04:48:33;1.10;77.70
52799;DHT22;38667;42.872;74.622;2022-12-18T04:50:59;1.20;77.60
52799;DHT22;38667;42.872;74.622;2022-12-18T04:53:27;1.20;77.30
52799;DHT22;38667;42.872;74.622;2022-12-18T04:56:03;1.30;77.20
52799;DHT22;38667;42.872;74.622;2022-12-18T04:58:29;1.30;77.00
52799;DHT22;38667;42.872;74.622;2022-12-18T05:00:56;1.40;76.70
52799;DHT22;38667;42.872;74.622;2022-12-18T05:03:22;1.40;76.50
52799;DHT22;38667;42.872;74.622;2022-12-18T05:05:50;1.40;75.90
52799;DHT22;38667;42.872;74.622;2022-12-18T05:08:16;1.30;76.10
52799;DHT22;38667;42.872;74.622;2022-12-18T05:10:44;1.40;76.10
52799;DHT22;38667;42.872;74.622;2022-12-18T05:13:10;1.40;76.10
52799;DHT22;38667;42.872;74.622;2022-12-18T05:15:37;1.50;75.80
52799;DHT22;38667;42.872;74.622;2022-12-18T05:18:03;1.50;75.40
52799;DHT22;38667;42.872;74.622;2022-12-18T05:20:30;1.60;75.20
52799;DHT22;38667;42.872;74.622;2022-12-18T05:22:57;1.70;75.20
52799;DHT22;38667;42.872;74.622;2022-12-18T05:25:23;1.70;75.00
52799;DHT22;38667;42.872;74.622;2022-12-18T05:27:51;1.70;75.00
52799;DHT22;38667;42.872;74.622;2022-12-18T05:30:17;1.70;75.50
52799;DHT22;38667;42.872;74.622;2022-12-18T05:32:44;1.80;75.30
52799;DHT22;38667;42.872;74.622;2022-12-18T05:35:11;1.90;75.40
52799;DHT22;38667;42.872;74.622;2022-12-18T05:37:37;1.90;75.10
52799;DHT22;38667;42.872;74.622;2022-12-18T05:40:04;2.00;74.90
52799;DHT22;38667;42.872;74.622;2022-12-18T05:42:31;2.00;73.90
52799;DHT22;38667;42.872;74.622;2022-12-18T05:44:59;2.10;73.60
52799;DHT22;38667;42.872;74.622;2022-12-18T05:47:26;2.20;73.50
52799;DHT22;38667;42.872;74.622;2022-12-18T05:49:52;2.30;73.00
52799;DHT22;38667;42.872;74.622;2022-12-18T05:52:18;2.30;72.60
52799;DHT22;38667;42.872;74.622;2022-12-18T05:54:45;2.40;72.90
52799;DHT22;38667;42.872;74.622;2022-12-18T05:57:11;2.50;72.90
52799;DHT22;38667;42.872;74.622;2022-12-18T05:59:37;2.60;71.40
52799;DHT22;38667;42.872;74.622;2022-12-18T06:02:05;2.60;71.40
52799;DHT22;38667;42.872;74.622;2022-12-18T06:04:32;2.70;71.00
52799;DHT22;38667;42.872;74.622;2022-12-18T06:06:58;2.80;70.70
52799;DHT22;38667;42.872;74.622;2022-12-18T06:09:24;2.90;70.40
52799;DHT22;38667;42.872;74.622;2022-12-18T06:11:52;2.90;69.90
52799;DHT22;38667;42.872;74.622;2022-12-18T06:14:18;3.00;70.20
52799;DHT22;38667;42.872;74.622;2022-12-18T06:16:44;3.10;69.90
52799;DHT22;38667;42.872;74.622;2022-12-18T06:19:15;3.20;69.60
52799;DHT22;38667;42.872;74.622;2022-12-18T06:21:42;3.20;69.40
52799;DHT22;38667;42.872;74.622;2022-12-18T06:24:08;3.30;68.60
52799;DHT22;38667;42.872;74.622;2022-12-18T06:26:36;3.30;68.70
52799;DHT22;38667;42.872;74.622;2022-12-18T06:29:03;3.30;68.70
52799;DHT22;38667;42.872;74.622;2022-12-18T06:31:30;3.40;68.20
52799;DHT22;38667;42.872;74.622;2022-12-18T06:33:56;3.40;68.30
52799;DHT22;38667;42.872;74.622;2022-12-18T06:36:24;3.50;67.90
52799;DHT22;38667;42.872;74.622;2022-12-18T06:38:50;3.50;67.70
52799;DHT22;38667;42.872;74.622;2022-12-18T06:41:19;3.60;67.30
52799;DHT22;38667;42.872;74.622;2022-12-18T06:43:46;3.60;66.20
52799;DHT22;38667;42.872;74.622;2022-12-18T06:46:12;3.70;66.60
52799;DHT22;38667;42.872;74.622;2022-12-18T06:48:39;3.70;65.60
52799;DHT22;38667;42.872;74.622;2022-12-18T06:51:06;3.80;65.90
52799;DHT22;38667;42.872;74.622;2022-12-18T06:53:34;3.80;66.10
52799;DHT22;38667;42.872;74.622;2022-12-18T06:56:01;3.90;64.90
52799;DHT22;38667;42.872;74.622;2022-12-18T06:58:27;4.00;64.70
52799;DHT22;38667;42.872;74.622;2022-12-18T07:00:54;4.10;64.50
52799;DHT22;38667;42.872;74.622;2022-12-18T07:03:25;4.20;63.80
52799;DHT22;38667;42.872;74.622;2022-12-18T07:05:51;4.20;63.40
52799;DHT22;38667;42.872;74.622;2022-12-18T07:08:17;4.30;63.20
52799;DHT22;38667;42.872;74.622;2022-12-18T07:10:48;4.40;62.70
52799;DHT22;38667;42.872;74.622;2022-12-18T07:13:14;4.50;61.60
52799;DHT22;38667;42.872;74.622;2022-12-18T07:15:41;4.60;60.90
52799;DHT22;38667;42.872;74.622;2022-12-18T07:18:07;4.60;61.30
52799;DHT22;38667;42.872;74.622;2022-12-18T07:20:34;4.60;61.60
52799;DHT22;38667;42.872;74.622;2022-12-18T07:23:02;4.70;62.00
52799;DHT22;38667;42.872;74.622;2022-12-18T07:25:28;4.70;62.60
52799;DHT22;38667;42.872;74.622;2022-12-18T07:27:56;4.80;61.90
52799;DHT22;38667;42.872;74.622;2022-12-18T07:30:22;4.80;62.60
52799;DHT22;38667;42.872;74.622;2022-12-18T07:32:49;4.80;62.90
52799;DHT22;38667;42.872;74.622;2022-12-18T07:35:15;4.90;63.70
52799;DHT22;38667;42.872;74.622;2022-12-18T07:37:42;4.90;64.30
52799;DHT22;38667;42.872;74.622;2022-12-18T07:40:09;5.00;63.40
52799;DHT22;38667;42.872;74.622;2022-12-18T07:42:36;5.00;63.40
52799;DHT22;38667;42.872;74.622;2022-12-18T07:45:04;5.00;64.60
52799;DHT22;38667;42.872;74.622;2022-12-18T07:47:33;5.10;64.30
52799;DHT22;38667;42.872;74.622;2022-12-18T07:49:59;5.10;65.00
52799;DHT22;38667;42.872;74.622;2022-12-18T07:52:26;5.10;64.30
52799;DHT22;38667;42.872;74.622;2022-12-18T07:54:52;5.10;65.30
52799;DHT22;38667;42.872;74.622;2022-12-18T07:57:18;5.10;64.90
52799;DHT22;38667;42.872;74.622;2022-12-18T07:59:45;5.10;65.60
52799;DHT22;38667;42.872;74.622;2022-12-18T08:02:12;5.10;65.60
52799;DHT22;38667;42.872;74.622;2022-12-18T08:04:39;5.00;65.80
52799;DHT22;38667;42.872;74.622;2022-12-18T08:07:05;4.90;66.40
52799;DHT22;38667;42.872;74.622;2022-12-18T08:09:31;4.90;66.30
52799;DHT22;38667;42.872;74.622;2022-12-18T08:12:00;4.90;66.30
52799;DHT22;38667;42.872;74.622;2022-12-18T08:14:27;4.90;66.60
52799;DHT22;38667;42.872;74.622;2022-12-18T08:16:53;5.00;65.80
52799;DHT22;38667;42.872;74.622;2022-12-18T08:19:21;4.90;65.40
52799;DHT22;38667;42.872;74.622;2022-12-18T08:21:47;4.80;66.10
52799;DHT22;38667;42.872;74.622;2022-12-18T08:24:14;4.80;66.80
52799;DHT22;38667;42.872;74.622;2022-12-18T08:26:40;4.70;66.30
52799;DHT22;38667;42.872;74.622;2022-12-18T08:29:06;4.70;66.00
52799;DHT22;38667;42.872;74.622;2022-12-18T08:31:33;4.70;66.50
52799;DHT22;38667;42.872;74.622;2022-12-18T08:33:59;4.70;66.70
52799;DHT22;38667;42.872;74.622;2022-12-18T08:36:27;4.70;66.80
52799;DHT22;38667;42.872;74.622;2022-12-18T08:38:53;4.70;66.50
52799;DHT22;38667;42.872;74.622;2022-12-18T08:41:20;4.70;66.50
52799;DHT22;38667;42.872;74.622;2022-12-18T08:43:47;4.80;65.90
52799;DHT22;38667;42.872;74.622;2022-12-18T08:46:14;4.80;65.40
52799;DHT22;38667;42.872;74.622;2022-12-18T08:48:40;4.80;65.30
52799;DHT22;38667;42.872;74.622;2022-12-18T08:51:06;4.80;65.60
52799;DHT22;38667;42.872;74.622;2022-12-18T08:53:34;4.80;65.70
52799;DHT22;38667;42.872;74.622;2022-12-18T08:56:01;4.80;64.50
52799;DHT22;38667;42.872;74.622;2022-12-18T08:58:27;4.80;64.70
52799;DHT22;38667;42.872;74.622;2022-12-18T09:00:53;4.80;64.30
52799;DHT22;38667;42.872;74.622;2022-12-18T09:03:20;4.70;64.30
52799;DHT22;38667;42.872;74.622;2022-12-18T09:05:46;4.70;64.30
52799;DHT22;38667;42.872;74.622;2022-12-18T09:08:13;4.80;64.00
52799;DHT22;38667;42.872;74.622;2022-12-18T09:10:43;4.80;63.10
52799;DHT22;38667;42.872;74.622;2022-12-18T09:13:13;4.90;62.80
52799;DHT22;38667;42.872;74.622;2022-12-18T09:15:41;4.80;63.10
52799;DHT22;38667;42.872;74.622;2022-12-18T09:18:08;4.80;63.20
52799;DHT22;38667;42.872;74.622;2022-12-18T09:20:34;4.70;62.20
52799;DHT22;38667;42.872;74.622;2022-12-18T09:23:01;4.60;63.60
52799;DHT22;38667;42.872;74.622;2022-12-18T09:25:28;4.70;63.10
52799;DHT22;38667;42.872;74.622;2022-12-18T09:27:56;4.70;62.60
52799;DHT22;38667;42.872;74.622;2022-12-18T09:30:22;4.70;62.00
52799;DHT22;38667;42.872;74.622;2022-12-18T09:32:48;4.80;61.30
52799;DHT22;38667;42.872;74.622;2022-12-18T09:35:15;4.70;61.30
52799;DHT22;38667;42.872;74.622;2022-12-18T09:37:41;4.70;61.30
52799;DHT22;38667;42.872;74.622;2022-12-18T09:40:13;4.70;61.60
52799;DHT22;38667;42.872;74.622;2022-12-18T09:42:41;4.70;60.50
52799;DHT22;38667;42.872;74.622;2022-12-18T09:45:15;4.70;59.40
52799;DHT22;38667;42.872;74.622;2022-12-18T09:47:43;4.70;58.70
52799;DHT22;38667;42.872;74.622;2022-12-18T09:50:23;4.70;58.40
52799;DHT22;38667;42.872;74.622;2022-12-18T09:52:53;4.60;58.50
52799;DHT22;38667;42.872;74.622;2022-12-18T09:55:24;4.60;59.10
52799;DHT22;38667;42.872;74.622;2022-12-18T09:57:54;4.60;59.10
52799;DHT22;38667;42.872;74.622;2022-12-18T10:00:24;4.70;59.40
52799;DHT22;38667;42.872;74.622;2022-12-18T10:02:53;4.80;59.30
52799;DHT22;38667;42.872;74.622;2022-12-18T10:05:26;4.80;60.50
52799;DHT22;38667;42.872;74.622;2022-12-18T10:07:59;4.70;60.20
52799;DHT22;38667;42.872;74.622;2022-12-18T10:10:35;4.80;59.70
52799;DHT22;38667;42.872;74.622;2022-12-18T10:13:11;4.90;58.80
52799;DHT22;38667;42.872;74.622;2022-12-18T10:15:49;4.90;59.10
52799;DHT22;38667;42.872;74.622;2022-12-18T10:18:26;5.00;58.90
52799;DHT22;38667;42.872;74.622;2022-12-18T10:21:00;4.90;59.00
52799;DHT22;38667;42.872;74.622;2022-12-18T10:23:32;5.00;58.80
52799;DHT22;38667;42.872;74.622;2022-12-18T10:26:02;4.90;59.20
52799;DHT22;38667;42.872;74.622;2022-12-18T10:28:31;5.00;59.30
52799;DHT22;38667;42.872;74.622;2022-12-18T10:30:59;5.00;59.10
52799;DHT22;38667;42.872;74.622;2022-12-18T10:33:29;4.90;59.20
52799;DHT22;38667;42.872;74.622;2022-12-18T10:35:56;4.90;59.80
52799;DHT22;38667;42.872;74.622;2022-12-18T10:38:25;4.90;60.90
52799;DHT22;38667;42.872;74.622;2022-12-18T10:40:54;4.80;61.30
52799;DHT22;38667;42.872;74.622;2022-12-18T10:43:22;4.80;61.90
52799;DHT22;38667;42.872;74.622;2022-12-18T10:46:15;4.70;62.50
52799;DHT22;38667;42.872;74.622;2022-12-18T10:48:54;4.60;63.70
52799;DHT22;38667;42.872;74.622;2022-12-18T10:51:23;4.50;64.30
52799;DHT22;38667;42.872;74.622;2022-12-18T10:53:56;4.50;65.40
52799;DHT22;38667;42.872;74.622;2022-12-18T10:56:24;4.40;65.60
52799;DHT22;38667;42.872;74.622;2022-12-18T10:58:57;4.40;66.30
52799;DHT22;38667;42.872;74.622;2022-12-18T11:01:26;4.30;66.90
52799;DHT22;38667;42.872;74.622;2022-12-18T11:04:01;4.20;67.10
52799;DHT22;38667;42.872;74.622;2022-12-18T11:06:28;4.10;67.10
52799;DHT22;38667;42.872;74.622;2022-12-18T11:08:59;4.00;67.40
52799;DHT22;38667;42.872;74.622;2022-12-18T11:11:26;4.00;68.00
52799;DHT22;38667;42.872;74.622;2022-12-18T11:13:59;3.90;68.30
52799;DHT22;38667;42.872;74.622;2022-12-18T11:16:29;3.90;68.60
52799;DHT22;38667;42.872;74.622;2022-12-18T11:19:16;3.80;68.90
52799;DHT22;38667;42.872;74.622;2022-12-18T11:21:45;3.70;69.60
52799;DHT22;38667;42.872;74.622;2022-12-18T11:24:21;3.70;69.80
52799;DHT22;38667;42.872;74.622;2022-12-18T11:26:50;3.60;70.10
52799;DHT22;38667;42.872;74.622;2022-12-18T11:29:20;3.60;70.40
52799;DHT22;38667;42.872;74.622;2022-12-18T11:31:50;3.50;70.70
52799;DHT22;38667;42.872;74.622;2022-12-18T11:34:22;3.40;71.20
52799;DHT22;38667;42.872;74.622;2022-12-18T11:36:52;3.30;72.10
52799;DHT22;38667;42.872;74.622;2022-12-18T11:39:24;3.20;72.80
52799;DHT22;38667;42.872;74.622;2022-12-18T11:41:56;3.10;73.10
52799;DHT22;38667;42.872;74.622;2022-12-18T11:44:27;3.00;74.00
52799;DHT22;38667;42.872;74.622;2022-12-18T11:47:00;2.90;74.70
52799;DHT22;38667;42.872;74.622;2022-12-18T11:49:32;2.90;75.00
52799;DHT22;38667;42.872;74.622;2022-12-18T11:52:01;2.80;75.20
52799;DHT22;38667;42.872;74.622;2022-12-18T11:54:30;2.80;75.20
52799;DHT22;38667;42.872;74.622;2022-12-18T11:57:02;2.80;75.70
52799;DHT22;38667;42.872;74.622;2022-12-18T11:59:36;2.70;75.90
52799;DHT22;38667;42.872;74.622;2022-12-18T12:02:23;2.70;76.00
52799;DHT22;38667;42.872;74.622;2022-12-18T12:05:06;2.60;76.70
52799;DHT22;38667;42.872;74.622;2022-12-18T12:07:48;2.50;76.60
52799;DHT22;38667;42.872;74.622;2022-12-18T12:10:26;2.40;77.10
52799;DHT22;38667;42.872;74.622;2022-12-18T12:13:06;2.40;77.50
52799;DHT22;38667;42.872;74.622;2022-12-18T12:15:40;2.20;78.10
52799;DHT22;38667;42.872;74.622;2022-12-18T12:18:19;2.30;78.60
52799;DHT22;38667;42.872;74.622;2022-12-18T12:20:55;2.20;78.40
52799;DHT22;38667;42.872;74.622;2022-12-18T12:23:34;2.20;78.50
52799;DHT22;38667;42.872;74.622;2022-12-18T12:26:08;2.20;78.60
52799;DHT22;38667;42.872;74.622;2022-12-18T12:29:06;2.20;78.70
52799;DHT22;38667;42.872;74.622;2022-12-18T12:31:58;2.20;79.10
52799;DHT22;38667;42.872;74.622;2022-12-18T12:34:33;2.20;79.20
52799;DHT22;38667;42.872;74.622;2022-12-18T12:37:11;2.20;79.30
52799;DHT22;38667;42.872;74.622;2022-12-18T12:39:43;2.10;79.30
52799;DHT22;38667;42.872;74.622;2022-12-18T12:42:16;2.10;79.30
52799;DHT22;38667;42.872;74.622;2022-12-18T12:44:48;2.00;79.80
52799;DHT22;38667;42.872;74.622;2022-12-18T12:47:19;2.00;80.20
52799;DHT22;38667;42.872;74.622;2022-12-18T12:49:48;1.90;80.50
52799;DHT22;38667;42.872;74.622;2022-12-18T12:52:17;1.90;81.10
52799;DHT22;38667;42.872;74.622;2022-12-18T12:54:47;1.90;81.80
52799;DHT22;38667;42.872;74.622;2022-12-18T12:57:19;1.90;81.30
52799;DHT22;38667;42.872;74.622;2022-12-18T12:59:51;1.80;81.20
52799;DHT22;38667;42.872;74.622;2022-12-18T13:02:22;1.80;81.40
52799;DHT22;38667;42.872;74.622;2022-12-18T13:04:56;1.80;81.90
52799;DHT22;38667;42.872;74.622;2022-12-18T13:07:27;1.80;81.80
52799;DHT22;38667;42.872;74.622;2022-12-18T13:10:24;1.80;81.60
52799;DHT22;38667;42.872;74.622;2022-12-18T13:12:55;1.70;81.80
52799;DHT22;38667;42.872;74.622;2022-12-18T13:15:24;1.80;81.90
52799;DHT22;38667;42.872;74.622;2022-12-18T13:18:10;1.80;81.90
52799;DHT22;38667;42.872;74.622;2022-12-18T13:20:40;1.80;81.90
52799;DHT22;38667;42.872;74.622;2022-12-18T13:23:28;1.70;82.00
52799;DHT22;38667;42.872;74.622;2022-12-18T13:25:55;1.60;82.70
52799;DHT22;38667;42.872;74.622;2022-12-18T13:28:23;1.60;82.00
52799;DHT22;38667;42.872;74.622;2022-12-18T13:30:52;1.50;81.90
52799;DHT22;38667;42.872;74.622;2022-12-18T13:33:45;1.50;81.90
52799;DHT22;38667;42.872;74.622;2022-12-18T13:36:30;1.40;82.30
52799;DHT22;38667;42.872;74.622;2022-12-18T13:39:20;1.40;82.00
52799;DHT22;38667;42.872;74.622;2022-12-18T13:41:48;1.30;82.20
52799;DHT22;38667;42.872;74.622;2022-12-18T13:44:28;1.30;82.20
52799;DHT22;38667;42.872;74.622;2022-12-18T13:46:56;1.30;82.50
52799;DHT22;38667;42.872;74.622;2022-12-18T13:49:25;1.20;82.30
52799;DHT22;38667;42.872;74.622;2022-12-18T13:51:56;1.20;82.80
52799;DHT22;38667;42.872;74.622;2022-12-18T13:54:28;1.20;83.30
52799;DHT22;38667;42.872;74.622;2022-12-18T13:57:01;1.20;83.50
52799;DHT22;38667;42.872;74.622;2022-12-18T13:59:34;1.20;83.40
52799;DHT22;38667;42.872;74.622;2022-12-18T14:02:05;1.20;83.40
52799;DHT22;38667;42.872;74.622;2022-12-18T14:04:35;1.20;83.10
52799;DHT22;38667;42.872;74.622;2022-12-18T14:07:05;1.20;83.70
52799;DHT22;38667;42.872;74.622;2022-12-18T14:09:36;1.20;83.60
52799;DHT22;38667;42.872;74.622;2022-12-18T14:12:04;1.10;83.40
52799;DHT22;38667;42.872;74.622;2022-12-18T14:14:32;1.10;83.70
52799;DHT22;38667;42.872;74.622;2022-12-18T14:16:59;1.10;83.90
52799;DHT22;38667;42.872;74.622;2022-12-18T14:19:25;1.00;84.80
52799;DHT22;38667;42.872;74.622;2022-12-18T14:21:52;1.00;84.50
52799;DHT22;38667;42.872;74.622;2022-12-18T14:24:21;1.10;84.40
52799;DHT22;38667;42.872;74.622;2022-12-18T14:26:53;1.10;84.30
52799;DHT22;38667;42.872;74.622;2022-12-18T14:29:25;1.00;84.40
52799;DHT22;38667;42.872;74.622;2022-12-18T14:32:09;1.00;84.50
52799;DHT22;38667;42.872;74.622;2022-12-18T14:34:36;1.00;84.30
52799;DHT22;38667;42.872;74.622;2022-12-18T14:37:03;0.90;84.10
52799;DHT22;38667;42.872;74.622;2022-12-18T14:39:31;0.80;84.40
52799;DHT22;38667;42.872;74.622;2022-12-18T14:41:57;0.80;84.00
52799;DHT22;38667;42.872;74.622;2022-12-18T14:44:24;0.80;84.00
52799;DHT22;38667;42.872;74.622;2022-12-18T14:46:50;0.80;83.80
52799;DHT22;38667;42.872;74.622;2022-12-18T14:49:21;0.80;83.00
52799;DHT22;38667;42.872;74.622;2022-12-18T14:51:50;0.80;82.90
52799;DHT22;38667;42.872;74.622;2022-12-18T14:54:18;0.80;83.10
52799;DHT22;38667;42.872;74.622;2022-12-18T14:56:48;0.70;83.40
52799;DHT22;38667;42.872;74.622;2022-12-18T14:59:16;0.70;83.70
52799;DHT22;38667;42.872;74.622;2022-12-18T15:01:46;0.60;84.30
52799;DHT22;38667;42.872;74.622;2022-12-18T15:04:26;0.60;84.70
52799;DHT22;38667;42.872;74.622;2022-12-18T15:07:08;0.70;84.90
52799;DHT22;38667;42.872;74.622;2022-12-18T15:09:36;0.60;84.70
52799;DHT22;38667;42.872;74.622;2022-12-18T15:12:04;0.60;85.10
52799;DHT22;38667;42.872;74.622;2022-12-18T15:14:38;0.70;85.50
52799;DHT22;38667;42.872;74.622;2022-12-18T15:17:12;0.70;84.80
52799;DHT22;38667;42.872;74.622;2022-12-18T15:19:41;0.80;84.40
52799;DHT22;38667;42.872;74.622;2022-12-18T15:22:25;0.80;83.70
52799;DHT22;38667;42.872;74.622;2022-12-18T15:24:52;0.90;83.10
52799;DHT22;38667;42.872;74.622;2022-12-18T15:27:29;0.90;83.00
52799;DHT22;38667;42.872;74.622;2022-12-18T15:30:21;0.90;83.50
52799;DHT22;38667;42.872;74.622;2022-12-18T15:32:48;1.00;84.30
52799;DHT22;38667;42.872;74.622;2022-12-18T15:35:18;1.00;84.00
52799;DHT22;38667;42.872;74.622;2022-12-18T15:37:44;1.00;84.20
52799;DHT22;38667;42.872;74.622;2022-12-18T15:40:13;1.00;85.10
52799;DHT22;38667;42.872;74.622;2022-12-18T15:42:42;1.00;86.00